RAIN

Not for real navigation. The accuracy of this data is not assured See disclaimer for more information



ICAO NAME COUNTRY WIND Kt GUST Kt VIS m TEMP/DEW C BARO METAR
KSMP STAMPEDE PASS WA United States 4 0 400 -2/-2 29.74 KSMP 240441Z AUTO VRB04KT 0.25SM -SN FZFG VV002 M02/M02 A2974 RMK AO2 P0000 T10171022 FZRANO $
KBKX Brookings, Brookings Municipal SD United States 3 0 400 -6/-7 30.16 KBKX 240456Z AUTO 25003KT 0.25SM FZFG OVC002 M06/M07 A3016 RMK AO2 SLP256 T10611072 FZRANO RVRNO
ZUCK Chongqing China 3 0 900 9/9 29.85 ZUCK 240400Z 14003KT 0900 R20R/1900 R20L/1400 R21/2000 -RA FG SCT002 SCT009 OVC033 09/09 Q1011 NOSIG
VNKT Kathmandu Airport Nepal 4 0 1000 9/9 30.06 VNKT 240450Z 24004KT 1000 RA FEW008 FEW025CB SCT025 OVC090 09/09 Q1018 NOSIG CB TO SE S SW AND W
CYQW North Battleford, Sask. Canada 9 0 1200 -8/-10 30.00 CYQW 240452Z AUTO 11009KT 0.75SM -FZRA BR VV003 M08/M10 A3000 RMK ICG SLP198

Show more